עמוד ראשי
METAR-TAF:

METAR-TAF

שדות תעופה :

נמל התעופה הבינלאומי חמד

דוחה, קטאר

קו רוחב: 25-16-23N, קו אורך: 51-36-29E, גובה: 4מטר

תצפית מזג אוויר נוכחית

הדו"ח נערך לפני 1 שעות ו 0דקות, בשעה 19:00 UTC
רוח 3קשר מכיוון צפון-מערב, משתנה בין דרום-מערב ו צפון/צפון-מערב
טמפרטורת 36 צלסיוס
לחות 31%
לחץ 1000 hPa
ראות 10 קילומטר או יותר
ללא עננים שבסיסם נמוך מ 5000 רגל או קומולונימבוס

METAR: OTHH 131900Z AUTO 31003KT 220V340 CAVOK 36/16 Q1000 NOSIG

זמן: 23:00 (20:00 UTC)

תחזית

הדו"ח נערך לפני 38 שעות ו 54דקות, בשעה 05:06 UTC
תחזית בתוקף מ 12 ב 06 UTC עד 13 ב 12 UTC
רוח 9קשר מכיוון דרום-מערב
ראות 10 קילומטר או יותר
ללא עננים שבסיסם נמוך מ 5000 רגל או קומולונימבוס
זמנית מ -
12 ב 06 UTC עד 12 ב 11 UTC
רוח 9קשר מכיוון דרום/דרום-מזרח
זמנית מ -
12 ב 12 UTC עד 12 ב 16 UTC
רוח 9קשר מכיוון צפון-מזרח
יעשה מ
12 ב 17 UTC עד 12 ב 19 UTC
רוח 9קשר מכיוון צפון/צפון-מערב

TAF: OTHH 120506Z 1206/1312 22009KT CAVOK TEMPO 1206/1211 15009KT TEMPO 1212/1216 04009KT BECMG 1217/1219 33009KT

תצפיות ותחזיות מזג אוויר לגבי יותר מ- 4,000 שדות תעופה ברחבי העולם. דוחות METAR ו- TAF.

התחנות הזמינות מסומנות בנקודות צהובות ואדומות על גבי המפה.

העבר את העכבר לנקודה הצבעונית על מנת לראות את שם התחנה.

לאחר מכן, לחץ כדי לראות את תוכן ואת תחזיות מזג האוויר.

כדי לשנות את המפה: לחץ על הכפתורים הירוקים עם הפלוס השחור כדי להתקרב; על הכפתור הירוק עם המקף כדי להתרחק; או בחיצים הירוקים למפות סמוכות.


METAR-TAF: